createdAt,value
2018-08-14T00:01:19.760Z,99171.58
2018-08-14T00:03:45.694Z,99169.11
2018-08-14T00:06:11.647Z,99169.82
2018-08-14T00:08:37.605Z,99169.59
2018-08-14T00:11:03.557Z,99165.30
2018-08-14T00:13:29.509Z,99168.25
2018-08-14T00:15:55.460Z,99168.70
2018-08-14T00:18:21.441Z,99163.18
2018-08-14T00:20:47.415Z,99162.23
2018-08-14T00:23:13.382Z,99166.12
2018-08-14T00:25:39.335Z,99165.15
2018-08-14T00:28:05.278Z,99168.20
2018-08-14T00:30:31.228Z,99158.30
2018-08-14T00:32:57.180Z,99167.58
2018-08-14T00:35:23.134Z,99168.44
2018-08-14T00:37:49.073Z,99164.12
2018-08-14T00:40:15.029Z,99167.73
2018-08-14T00:42:41.038Z,99169.30
2018-08-14T00:45:07.015Z,99174.39
2018-08-14T00:47:32.945Z,99178.09
2018-08-14T00:49:58.888Z,99167.81
2018-08-14T00:52:24.837Z,99172.46
2018-08-14T00:54:50.769Z,99173.54
2018-08-14T00:57:16.714Z,99176.23
2018-08-14T00:59:42.671Z,99172.64
2018-08-14T01:02:08.820Z,99176.30
2018-08-14T01:04:34.765Z,99169.56
2018-08-14T01:07:00.727Z,99164.72
2018-08-14T01:09:26.657Z,99167.30
2018-08-14T01:11:52.607Z,99160.03
2018-08-14T01:14:18.564Z,99159.36
2018-08-14T01:16:44.518Z,99154.25
2018-08-14T01:19:10.478Z,99150.59
2018-08-14T01:21:36.421Z,99154.73
2018-08-14T01:24:02.359Z,99151.72
2018-08-14T01:26:28.330Z,99145.97
2018-08-14T01:28:54.266Z,99144.50
2018-08-14T01:31:20.456Z,99137.34
2018-08-14T01:33:46.389Z,99145.06
2018-08-14T01:36:12.340Z,99139.46
2018-08-14T01:38:38.275Z,99147.85
2018-08-14T01:41:04.215Z,99151.92
2018-08-14T01:43:30.187Z,99154.36
2018-08-14T01:45:56.132Z,99154.41
2018-08-14T01:48:22.087Z,99157.06
2018-08-14T01:50:48.032Z,99160.99
2018-08-14T01:53:13.971Z,99162.66
2018-08-14T01:55:39.912Z,99165.52
2018-08-14T01:58:05.887Z,99167.65
2018-08-14T02:00:31.813Z,99174.50
2018-08-14T02:02:57.750Z,99171.77
2018-08-14T02:05:23.674Z,99170.52
2018-08-14T02:07:49.624Z,99178.81
2018-08-14T02:10:15.591Z,99184.58
2018-08-14T02:12:41.515Z,99179.58
2018-08-14T02:15:07.470Z,99185.66
2018-08-14T02:17:33.432Z,99188.59
2018-08-14T02:19:59.367Z,99187.62
2018-08-14T02:22:25.321Z,99190.76
2018-08-14T02:24:51.267Z,99189.20
2018-08-14T02:27:17.214Z,99191.41
2018-08-14T02:29:43.166Z,99192.06
2018-08-14T02:32:09.124Z,99200.63
2018-08-14T02:34:35.052Z,99205.19
2018-08-14T02:37:00.971Z,99212.86
2018-08-14T02:39:26.911Z,99214.16
2018-08-14T02:41:52.869Z,99214.48
2018-08-14T02:44:18.823Z,99215.58
2018-08-14T02:46:44.799Z,99218.20
2018-08-14T02:49:10.794Z,99215.94
2018-08-14T02:51:36.741Z,99220.33
2018-08-14T02:54:02.691Z,99211.42
2018-08-14T02:56:28.635Z,99213.39
2018-08-14T02:58:54.632Z,99221.50
2018-08-14T03:01:20.584Z,99214.47
2018-08-14T03:03:46.555Z,99220.44
2018-08-14T03:06:12.508Z,99223.09
2018-08-14T03:08:38.485Z,99223.08
2018-08-14T03:11:04.427Z,99222.85
2018-08-14T03:13:30.385Z,99223.77
2018-08-14T03:15:56.334Z,99219.34
2018-08-14T03:18:22.338Z,99216.66
2018-08-14T03:20:48.386Z,99217.23
2018-08-14T03:23:14.326Z,99223.86
2018-08-14T03:25:40.252Z,99225.59
2018-08-14T03:28:06.164Z,99224.65
2018-08-14T03:30:32.113Z,99228.30
2018-08-14T03:32:58.056Z,99232.55
2018-08-14T03:35:23.987Z,99231.41
2018-08-14T03:37:49.937Z,99230.66
2018-08-14T03:40:15.861Z,99231.50
2018-08-14T03:42:41.818Z,99231.77
2018-08-14T03:45:07.774Z,99236.50
2018-08-14T03:47:33.743Z,99232.92
2018-08-14T03:49:59.717Z,99229.72
2018-08-14T03:52:25.705Z,99239.65
2018-08-14T03:54:51.692Z,99241.13
2018-08-14T03:57:19.736Z,99240.24
2018-08-14T03:59:45.707Z,99243.23
2018-08-14T04:02:11.628Z,99248.87
2018-08-14T04:04:37.591Z,99248.55
2018-08-14T04:07:03.546Z,99247.02
2018-08-14T04:09:29.507Z,99254.41
2018-08-14T04:11:55.457Z,99253.33
2018-08-14T04:14:21.419Z,99256.96
2018-08-14T04:16:47.344Z,99259.44
2018-08-14T04:19:13.294Z,99266.67
2018-08-14T04:21:39.274Z,99272.58
2018-08-14T04:24:05.234Z,99276.04
2018-08-14T04:26:31.186Z,99269.92
2018-08-14T04:28:57.144Z,99275.17
2018-08-14T04:31:23.107Z,99272.61
2018-08-14T04:33:49.070Z,99270.55
2018-08-14T04:36:15.032Z,99279.92
2018-08-14T04:38:40.979Z,99278.03
2018-08-14T04:41:06.955Z,99285.08
2018-08-14T04:43:32.919Z,99288.59
2018-08-14T04:45:58.946Z,99293.83
2018-08-14T04:48:24.851Z,99297.08
2018-08-14T04:50:50.792Z,99295.79
2018-08-14T04:53:16.738Z,99296.85
2018-08-14T04:55:42.691Z,99299.77
2018-08-14T04:58:08.626Z,99306.88
2018-08-14T05:00:34.566Z,99308.18
2018-08-14T05:03:00.510Z,99311.19
2018-08-14T05:05:26.916Z,99303.64
2018-08-14T05:07:52.863Z,99314.00
2018-08-14T05:10:18.827Z,99319.77
2018-08-14T05:12:44.816Z,99322.32
2018-08-14T05:15:10.769Z,99322.67
2018-08-14T05:17:36.793Z,99322.98
2018-08-14T05:20:02.726Z,99325.61
2018-08-14T05:22:28.701Z,99326.94
2018-08-14T05:24:54.641Z,99333.09
2018-08-14T05:27:20.603Z,99335.11
2018-08-14T05:29:46.553Z,99342.09
2018-08-14T05:32:12.506Z,99346.25
2018-08-14T05:34:38.465Z,99345.31
2018-08-14T05:37:04.389Z,99346.38
2018-08-14T05:39:30.327Z,99346.47
2018-08-14T05:41:56.317Z,99351.00
2018-08-14T05:44:22.266Z,99347.31
2018-08-14T05:46:48.217Z,99357.39
2018-08-14T05:49:14.151Z,99356.59
2018-08-14T05:51:40.123Z,99360.94
2018-08-14T05:54:06.695Z,99354.86
2018-08-14T05:56:32.643Z,99351.27
2018-08-14T05:58:58.578Z,99353.14
2018-08-14T06:01:24.560Z,99352.78
2018-08-14T06:03:50.510Z,99356.00
2018-08-14T06:06:16.494Z,99361.02
2018-08-14T06:08:42.433Z,99363.81
2018-08-14T06:11:08.485Z,99370.53
2018-08-14T06:13:34.432Z,99372.21
2018-08-14T06:16:00.458Z,99368.64
2018-08-14T06:18:26.397Z,99369.86
2018-08-14T06:20:52.342Z,99370.96
2018-08-14T06:23:18.293Z,99377.69
2018-08-14T06:25:44.334Z,99383.96
2018-08-14T06:28:10.285Z,99368.23
2018-08-14T06:30:36.417Z,99371.44
2018-08-14T06:33:02.412Z,99376.98
2018-08-14T06:35:29.396Z,99381.60
2018-08-14T06:37:55.334Z,99387.02
2018-08-14T06:40:21.296Z,99390.54
2018-08-14T06:42:47.236Z,99392.03
2018-08-14T06:45:13.203Z,99396.34
2018-08-14T06:47:39.173Z,99389.00
2018-08-14T06:50:05.105Z,99392.45
2018-08-14T06:52:31.036Z,99390.45
2018-08-14T06:54:56.972Z,99394.69
2018-08-14T06:57:22.903Z,99396.20
2018-08-14T06:59:48.837Z,99389.72
2018-08-14T07:02:15.800Z,99398.94
2018-08-14T07:04:41.746Z,99403.42
2018-08-14T07:07:07.752Z,99398.09
2018-08-14T07:09:33.702Z,99403.42
2018-08-14T07:11:59.697Z,99398.77
2018-08-14T07:14:25.652Z,99406.05
2018-08-14T07:16:51.602Z,99398.89
2018-08-14T07:19:17.517Z,99395.92
2018-08-14T07:21:43.503Z,99399.93
2018-08-14T07:24:09.451Z,99408.09
2018-08-14T07:26:35.403Z,99395.83
2018-08-14T07:29:01.351Z,99395.17
2018-08-14T07:31:27.329Z,99399.48
2018-08-14T07:33:53.278Z,99402.47
2018-08-14T07:36:19.238Z,99396.77
2018-08-14T07:38:45.167Z,99400.30
2018-08-14T07:41:11.103Z,99411.61
2018-08-14T07:43:37.073Z,99406.66
2018-08-14T07:46:03.009Z,99407.23
2018-08-14T07:48:28.986Z,99405.07
2018-08-14T07:50:54.940Z,99406.86
2018-08-14T07:53:20.882Z,99404.59
2018-08-14T07:55:46.827Z,99400.46
2018-08-14T07:58:13.803Z,99410.73
2018-08-14T08:00:39.761Z,99405.72
2018-08-14T08:03:05.692Z,99407.43
2018-08-14T08:05:31.640Z,99405.48
2018-08-14T08:07:57.652Z,99408.20
2018-08-14T08:10:23.631Z,99411.41
2018-08-14T08:12:49.545Z,99412.19
2018-08-14T08:15:15.477Z,99418.16
2018-08-14T08:17:41.400Z,99421.14
2018-08-14T08:20:07.389Z,99415.84
2018-08-14T08:22:33.336Z,99417.55
2018-08-14T08:24:59.288Z,99423.67
2018-08-14T08:27:25.225Z,99429.12
2018-08-14T08:29:51.170Z,99424.84
2018-08-14T08:32:17.111Z,99434.66
2018-08-14T08:34:43.075Z,99430.05
2018-08-14T08:37:09.060Z,99428.99
2018-08-14T08:39:35.067Z,99425.41
2018-08-14T08:42:03.043Z,99424.86
2018-08-14T08:44:28.967Z,99424.73
2018-08-14T08:46:54.947Z,99417.98
2018-08-14T08:49:20.942Z,99419.41
2018-08-14T08:51:46.888Z,99428.50
2018-08-14T08:54:12.842Z,99429.59
2018-08-14T08:56:38.812Z,99425.77
2018-08-14T08:59:04.753Z,99424.30
2018-08-14T09:01:30.715Z,99425.16
2018-08-14T09:03:56.756Z,99431.65
2018-08-14T09:06:22.688Z,99433.87
2018-08-14T09:08:48.679Z,99423.86
2018-08-14T09:11:14.611Z,99431.27
2018-08-14T09:13:40.629Z,99429.20
2018-08-14T09:16:06.576Z,99432.69
2018-08-14T09:18:32.593Z,99443.19
2018-08-14T09:20:58.533Z,99441.05
2018-08-14T09:23:24.476Z,99432.89
2018-08-14T09:25:50.440Z,99435.11
2018-08-14T09:28:16.394Z,99438.89
2018-08-14T09:30:42.321Z,99434.19
2018-08-14T09:33:08.271Z,99435.72
2018-08-14T09:35:34.215Z,99430.30
2018-08-14T09:38:00.171Z,99431.23
2018-08-14T09:40:26.129Z,99436.86
2018-08-14T09:42:52.119Z,99432.31
2018-08-14T09:45:18.116Z,99436.19
2018-08-14T09:47:44.079Z,99437.00
2018-08-14T09:50:10.020Z,99442.46
2018-08-14T09:52:35.974Z,99437.78
2018-08-14T09:55:01.910Z,99440.42
2018-08-14T09:57:27.863Z,99437.20
2018-08-14T09:59:53.811Z,99431.43
2018-08-14T10:02:19.763Z,99428.58
2018-08-14T10:04:45.809Z,99436.00
2018-08-14T10:07:11.708Z,99434.78
2018-08-14T10:09:37.648Z,99432.71
2018-08-14T10:12:03.598Z,99435.83
2018-08-14T10:14:29.553Z,99422.00
2018-08-14T10:16:55.504Z,99424.27
2018-08-14T10:19:21.448Z,99418.30
2018-08-14T10:21:47.398Z,99421.87
2018-08-14T10:24:13.366Z,99416.51
2018-08-14T10:26:39.351Z,99423.11
2018-08-14T10:29:05.323Z,99422.15
2018-08-14T10:31:31.296Z,99419.70
2018-08-14T10:33:57.269Z,99422.48
2018-08-14T10:36:23.233Z,99427.93
2018-08-14T10:38:49.219Z,99421.70
2018-08-14T10:41:15.197Z,99426.61
2018-08-14T10:43:41.165Z,99430.44
2018-08-14T10:46:07.204Z,99423.02
2018-08-14T10:48:33.172Z,99426.52
2018-08-14T10:50:59.126Z,99422.24
2018-08-14T10:53:25.052Z,99418.28
2018-08-14T10:55:51.047Z,99424.16
2018-08-14T10:58:17.017Z,99424.86
2018-08-14T11:00:43.029Z,99419.78
2018-08-14T11:03:08.989Z,99412.67
2018-08-14T11:05:34.972Z,99410.52
2018-08-14T11:08:00.914Z,99414.33
2018-08-14T11:10:26.839Z,99416.36
2018-08-14T11:12:52.783Z,99424.02
2018-08-14T11:15:18.735Z,99427.33
2018-08-14T11:17:44.694Z,99427.92
2018-08-14T11:20:10.673Z,99428.03
2018-08-14T11:22:36.634Z,99423.44
2018-08-14T11:25:02.576Z,99428.30
2018-08-14T11:27:28.553Z,99433.59
2018-08-14T11:29:54.505Z,99441.16
2018-08-14T11:32:20.449Z,99439.75
2018-08-14T11:34:46.411Z,99440.92
2018-08-14T11:37:12.374Z,99439.13
2018-08-14T11:39:38.346Z,99437.09
2018-08-14T11:42:04.280Z,99447.78
2018-08-14T11:44:30.305Z,99439.50
2018-08-14T11:46:56.235Z,99447.77
2018-08-14T11:49:22.179Z,99449.98
2018-08-14T11:51:48.155Z,99444.86
2018-08-14T11:54:14.140Z,99442.44
2018-08-14T11:56:40.113Z,99449.42
2018-08-14T11:59:06.075Z,99451.48
2018-08-14T12:01:32.021Z,99448.11
2018-08-14T12:03:57.964Z,99449.29
2018-08-14T12:06:23.967Z,99452.05
2018-08-14T12:08:49.896Z,99449.52
2018-08-14T12:11:15.890Z,99449.39
2018-08-14T12:13:41.859Z,99444.93
2018-08-14T12:16:07.823Z,99452.44
2018-08-14T12:18:33.793Z,99449.23
2018-08-14T12:20:59.853Z,99453.13
2018-08-14T12:23:25.814Z,99458.16
2018-08-14T12:25:51.799Z,99454.06
2018-08-14T12:28:17.785Z,99440.14
2018-08-14T12:30:43.727Z,99445.72
2018-08-14T12:33:09.735Z,99450.86
2018-08-14T12:35:35.686Z,99437.66
2018-08-14T12:38:01.625Z,99441.44
2018-08-14T12:40:27.599Z,99451.47
2018-08-14T12:42:53.531Z,99443.77
2018-08-14T12:45:19.497Z,99435.16
2018-08-14T12:47:45.459Z,99434.81
2018-08-14T12:50:11.449Z,99444.02
2018-08-14T12:52:37.412Z,99438.02
2018-08-14T12:55:03.380Z,99438.40
2018-08-14T12:57:29.342Z,99434.80
2018-08-14T12:59:55.319Z,99439.11
2018-08-14T13:02:21.259Z,99440.95
2018-08-14T13:04:47.356Z,99437.27
2018-08-14T13:07:13.310Z,99444.45
2018-08-14T13:09:39.252Z,99442.20
2018-08-14T13:12:05.197Z,99444.95
2018-08-14T13:14:31.158Z,99432.05
2018-08-14T13:16:57.121Z,99434.17
2018-08-14T13:19:23.076Z,99436.77
2018-08-14T13:21:49.029Z,99442.91
2018-08-14T13:24:14.967Z,99435.05
2018-08-14T13:26:40.958Z,99440.68
2018-08-14T13:29:06.912Z,99442.03
2018-08-14T13:31:32.876Z,99430.59
2018-08-14T13:33:58.867Z,99440.45
2018-08-14T13:36:24.829Z,99444.02
2018-08-14T13:38:50.901Z,99446.81
2018-08-14T13:41:16.868Z,99439.20
2018-08-14T13:43:42.828Z,99441.30
2018-08-14T13:46:08.790Z,99439.41
2018-08-14T13:48:34.764Z,99445.46
2018-08-14T13:51:00.703Z,99442.97
2018-08-14T13:53:26.685Z,99451.33
2018-08-14T13:55:52.646Z,99451.75
2018-08-14T13:58:18.622Z,99454.58
2018-08-14T14:00:44.592Z,99454.41
2018-08-14T14:03:10.577Z,99455.61
2018-08-14T14:05:36.535Z,99459.75
2018-08-14T14:08:02.500Z,99451.30
2018-08-14T14:10:28.450Z,99459.20
2018-08-14T14:12:54.385Z,99455.39
2018-08-14T14:15:20.333Z,99450.25
2018-08-14T14:17:46.306Z,99452.51
2018-08-14T14:20:12.248Z,99447.83
2018-08-14T14:22:38.208Z,99444.27
2018-08-14T14:25:04.177Z,99452.59
2018-08-14T14:27:30.209Z,99448.59
2018-08-14T14:29:56.147Z,99457.73
2018-08-14T14:32:22.115Z,99451.30
2018-08-14T14:34:48.071Z,99449.70
2018-08-14T14:37:14.067Z,99449.52
2018-08-14T14:39:40.038Z,99456.73
2018-08-14T14:42:06.033Z,99462.17
2018-08-14T14:44:31.985Z,99462.59
2018-08-14T14:46:57.978Z,99467.13
2018-08-14T14:49:23.960Z,99465.60
2018-08-14T14:51:49.896Z,99466.44
2018-08-14T14:54:15.831Z,99457.75
2018-08-14T14:56:41.809Z,99458.25
2018-08-14T14:59:07.746Z,99469.84
2018-08-14T15:01:33.677Z,99468.52
2018-08-14T15:03:59.602Z,99475.81
2018-08-14T15:06:25.566Z,99476.37
2018-08-14T15:08:51.529Z,99472.25
2018-08-14T15:11:17.489Z,99474.72
2018-08-14T15:13:43.472Z,99474.23
2018-08-14T15:16:09.421Z,99478.59
2018-08-14T15:18:35.394Z,99478.52
2018-08-14T15:21:01.337Z,99476.48
2018-08-14T15:23:27.286Z,99482.56
2018-08-14T15:25:53.247Z,99479.77
2018-08-14T15:28:19.247Z,99486.48
2018-08-14T15:30:45.221Z,99475.38
2018-08-14T15:33:11.165Z,99475.50
2018-08-14T15:35:37.097Z,99478.09
2018-08-14T15:38:03.020Z,99480.72
2018-08-14T15:40:28.973Z,99489.60
2018-08-14T15:42:54.937Z,99488.78
2018-08-14T15:45:20.910Z,99490.95
2018-08-14T15:47:46.836Z,99480.23
2018-08-14T15:50:13.288Z,99487.56
2018-08-14T15:52:39.252Z,99477.25
2018-08-14T15:55:05.280Z,99484.20
2018-08-14T15:57:31.265Z,99490.92
2018-08-14T15:59:57.249Z,99494.81
2018-08-14T16:02:23.238Z,99491.98
2018-08-14T16:04:49.272Z,99498.92
2018-08-14T16:07:15.240Z,99498.41
2018-08-14T16:09:41.191Z,99504.31
2018-08-14T16:12:07.137Z,99505.42
2018-08-14T16:14:33.067Z,99507.09
2018-08-14T16:16:59.022Z,99498.20
2018-08-14T16:19:25.008Z,99508.77
2018-08-14T16:21:51.040Z,99507.87
2018-08-14T16:24:17.001Z,99506.22
2018-08-14T16:26:42.993Z,99518.34
2018-08-14T16:29:08.935Z,99518.11
2018-08-14T16:31:34.924Z,99517.26
2018-08-14T16:34:00.906Z,99515.96
2018-08-14T16:36:26.894Z,99513.67
2018-08-14T16:38:52.866Z,99517.11
2018-08-14T16:41:18.805Z,99526.38
2018-08-14T16:43:44.759Z,99524.09
2018-08-14T16:46:10.905Z,99523.25
2018-08-14T16:48:36.873Z,99528.56
2018-08-14T16:51:02.840Z,99539.59
2018-08-14T16:53:28.789Z,99542.80
2018-08-14T16:55:54.735Z,99539.97
2018-08-14T16:58:20.691Z,99538.38
2018-08-14T17:00:46.653Z,99539.59
2018-08-14T17:03:12.618Z,99545.53
2018-08-14T17:05:38.568Z,99542.45
2018-08-14T17:08:04.632Z,99547.42
2018-08-14T17:10:30.489Z,99547.82
2018-08-14T17:12:56.433Z,99551.59
2018-08-14T17:15:22.388Z,99552.42
2018-08-14T17:17:48.344Z,99551.42
2018-08-14T17:20:14.290Z,99558.70
2018-08-14T17:22:40.262Z,99573.13
2018-08-14T17:25:06.222Z,99572.96
2018-08-14T17:27:32.226Z,99580.60
2018-08-14T17:29:58.183Z,99576.30
2018-08-14T17:32:24.191Z,99587.16
2018-08-14T17:34:50.158Z,99592.64
2018-08-14T17:37:16.144Z,99594.30
2018-08-14T17:39:42.178Z,99597.41
2018-08-14T17:42:08.167Z,99601.11
2018-08-14T17:44:34.115Z,99606.43
2018-08-14T17:47:00.133Z,99610.93
2018-08-14T17:49:26.070Z,99610.35
2018-08-14T17:51:52.041Z,99607.23
2018-08-14T17:54:17.978Z,99610.66
2018-08-14T17:56:43.977Z,99610.27
2018-08-14T17:59:09.930Z,99608.56
2018-08-14T18:01:35.898Z,99602.94
2018-08-14T18:04:01.994Z,99614.48
2018-08-14T18:06:27.967Z,99607.66
2018-08-14T18:08:53.904Z,99615.20
2018-08-14T18:11:19.892Z,99616.84
2018-08-14T18:13:45.872Z,99612.11
2018-08-14T18:16:11.846Z,99627.30
2018-08-14T18:18:37.833Z,99632.78
2018-08-14T18:21:03.775Z,99627.34
2018-08-14T18:23:29.746Z,99635.76
2018-08-14T18:25:55.712Z,99639.58
2018-08-14T18:28:21.682Z,99642.30
2018-08-14T18:30:47.638Z,99645.37
2018-08-14T18:33:13.703Z,99654.48
2018-08-14T18:35:39.667Z,99654.03
2018-08-14T18:38:05.625Z,99655.92
2018-08-14T18:40:31.596Z,99662.98
2018-08-14T18:42:57.566Z,99668.01
2018-08-14T18:45:23.651Z,99670.91
2018-08-14T18:47:49.640Z,99673.89
2018-08-14T18:50:15.598Z,99677.30
2018-08-14T18:52:41.550Z,99673.81
2018-08-14T18:55:07.515Z,99681.60
2018-08-14T18:57:33.497Z,99686.40
2018-08-14T18:59:59.465Z,99689.94
2018-08-14T19:02:25.431Z,99693.17
2018-08-14T19:04:52.415Z,99698.63
2018-08-14T19:07:18.529Z,99704.34
2018-08-14T19:09:44.470Z,99706.94
2018-08-14T19:12:10.438Z,99711.20
2018-08-14T19:14:36.759Z,99711.20
2018-08-14T19:17:02.815Z,99716.30
2018-08-14T19:19:28.785Z,99711.80
2018-08-14T19:21:54.753Z,99713.75
2018-08-14T19:24:20.734Z,99714.19
2018-08-14T19:26:46.683Z,99721.58
2018-08-14T19:29:12.687Z,99723.86
2018-08-14T19:31:38.663Z,99718.78
2018-08-14T19:34:04.628Z,99721.33
2018-08-14T19:36:30.590Z,99722.88
2018-08-14T19:38:56.550Z,99723.58
2018-08-14T19:41:22.511Z,99732.73
2018-08-14T19:43:48.473Z,99733.53
2018-08-14T19:46:14.534Z,99734.19
2018-08-14T19:48:40.647Z,99744.55
2018-08-14T19:51:06.630Z,99743.11
2018-08-14T19:53:32.610Z,99748.50
2018-08-14T19:55:58.545Z,99750.13
2018-08-14T19:58:24.597Z,99745.47
2018-08-14T20:00:50.675Z,99749.37
2018-08-14T20:03:16.719Z,99749.13
2018-08-14T20:05:42.622Z,99755.50
2018-08-14T20:08:08.616Z,99759.70
2018-08-14T20:10:34.599Z,99765.27
2018-08-14T20:13:00.566Z,99770.38
2018-08-14T20:15:26.603Z,99780.33
2018-08-14T20:17:52.575Z,99787.77
2018-08-14T20:20:18.536Z,99801.30
2018-08-14T20:22:44.528Z,99803.77
2018-08-14T20:25:10.490Z,99805.53
2018-08-14T20:27:36.449Z,99812.55
2018-08-14T20:30:02.440Z,99818.48
2018-08-14T20:32:28.382Z,99818.25
2018-08-14T20:34:54.338Z,99823.36
2018-08-14T20:37:20.360Z,99830.86
2018-08-14T20:39:46.348Z,99833.51
2018-08-14T20:42:12.300Z,99829.34
2018-08-14T20:44:38.243Z,99831.03
2018-08-14T20:47:04.252Z,99834.27
2018-08-14T20:49:30.184Z,99831.06
2018-08-14T20:51:56.120Z,99827.07
2018-08-14T20:54:22.158Z,99819.78
2018-08-14T20:56:48.139Z,99819.36
2018-08-14T20:59:14.123Z,99824.33
2018-08-14T21:01:40.081Z,99828.77
2018-08-14T21:04:06.061Z,99834.14
2018-08-14T21:06:31.993Z,99836.59
2018-08-14T21:08:57.954Z,99829.05
2018-08-14T21:11:23.891Z,99839.33
2018-08-14T21:13:49.834Z,99836.17
2018-08-14T21:16:15.822Z,99842.95
2018-08-14T21:18:41.784Z,99838.34
2018-08-14T21:21:07.739Z,99843.42
2018-08-14T21:23:33.706Z,99841.91
2018-08-14T21:25:59.728Z,99842.50
2018-08-14T21:28:25.668Z,99835.23
2018-08-14T21:30:51.608Z,99843.21
2018-08-14T21:33:17.559Z,99835.44
2018-08-14T21:35:43.501Z,99841.02
2018-08-14T21:38:09.450Z,99838.03
2018-08-14T21:40:35.412Z,99839.33
2018-08-14T21:43:01.391Z,99843.76
2018-08-14T21:45:27.333Z,99846.38
2018-08-14T21:47:53.294Z,99848.00
2018-08-14T21:50:19.263Z,99840.63
2018-08-14T21:52:45.301Z,99835.84
2018-08-14T21:55:11.266Z,99838.88
2018-08-14T21:57:37.216Z,99840.26
2018-08-14T22:00:03.179Z,99839.51
2018-08-14T22:02:29.122Z,99835.05
2018-08-14T22:04:55.137Z,99837.38
2018-08-14T22:07:21.043Z,99847.48
2018-08-14T22:09:47.019Z,99840.98
2018-08-14T22:12:12.958Z,99836.52
2018-08-14T22:14:38.927Z,99838.56
2018-08-14T22:17:04.879Z,99842.22
2018-08-14T22:19:30.875Z,99846.45
2018-08-14T22:21:56.813Z,99848.41
2018-08-14T22:24:22.772Z,99841.20
2018-08-14T22:26:48.730Z,99843.30
2018-08-14T22:29:14.689Z,99836.69
2018-08-14T22:31:40.666Z,99837.44
2018-08-14T22:34:06.620Z,99834.84
2018-08-14T22:36:32.570Z,99838.42
2018-08-14T22:38:58.518Z,99841.92
2018-08-14T22:41:24.459Z,99839.63
2018-08-14T22:43:50.432Z,99841.37
2018-08-14T22:46:16.386Z,99835.19
2018-08-14T22:48:42.342Z,99831.53
2018-08-14T22:51:08.276Z,99839.41
2018-08-14T22:53:34.214Z,99837.66
2018-08-14T22:56:00.183Z,99841.14
2018-08-14T22:58:26.114Z,99839.75
2018-08-14T23:00:52.038Z,99843.58
2018-08-14T23:03:18.020Z,99838.75
2018-08-14T23:05:43.971Z,99839.24
2018-08-14T23:08:09.905Z,99838.41
2018-08-14T23:10:35.884Z,99845.11
2018-08-14T23:13:01.826Z,99844.67
2018-08-14T23:15:27.780Z,99842.06
2018-08-14T23:17:53.722Z,99840.39
2018-08-14T23:20:19.664Z,99842.54
2018-08-14T23:22:45.588Z,99846.03
2018-08-14T23:25:11.516Z,99846.34
2018-08-14T23:27:37.440Z,99851.64
2018-08-14T23:30:03.367Z,99850.58
2018-08-14T23:32:29.307Z,99849.62
2018-08-14T23:34:55.248Z,99847.41
2018-08-14T23:37:21.184Z,99844.10
2018-08-14T23:39:47.128Z,99848.55
2018-08-14T23:42:13.064Z,99845.80
2018-08-14T23:44:39.007Z,99849.98
2018-08-14T23:47:04.959Z,99852.94
2018-08-14T23:49:30.898Z,99854.14
2018-08-14T23:51:56.866Z,99857.38
2018-08-14T23:54:22.817Z,99854.77
2018-08-14T23:56:48.764Z,99859.76
2018-08-14T23:59:14.691Z,99856.42
